createdAt,value
2023-04-02T00:03:54.216Z,6.50
2023-04-02T00:08:49.030Z,7.20
2023-04-02T00:13:46.831Z,7.10
2023-04-02T00:18:46.857Z,9.80
2023-04-02T00:23:41.999Z,7.50
2023-04-02T00:28:34.832Z,8.40
2023-04-02T00:33:31.589Z,9.10
2023-04-02T00:38:30.917Z,9.50
2023-04-02T00:43:28.020Z,9.70
2023-04-02T00:49:02.539Z,10.50
2023-04-02T00:53:59.515Z,9.30
2023-04-02T00:58:54.636Z,8.80
2023-04-02T01:03:59.960Z,8.90
2023-04-02T01:09:08.167Z,9.80
2023-04-02T01:14:27.066Z,10.50
2023-04-02T01:19:42.512Z,9.00
2023-04-02T01:25:04.382Z,7.10
2023-04-02T01:29:59.812Z,7.30
2023-04-02T01:34:53.671Z,6.70
2023-04-02T01:40:07.686Z,6.90
2023-04-02T01:45:12.707Z,6.40
2023-04-02T01:50:19.622Z,5.90
2023-04-02T01:55:15.603Z,5.70
2023-04-02T02:00:13.532Z,6.10
2023-04-02T02:05:13.822Z,5.80
2023-04-02T02:10:08.235Z,6.70
2023-04-02T02:15:01.280Z,6.10
2023-04-02T02:19:58.487Z,5.80
2023-04-02T02:24:51.496Z,5.40
2023-04-02T02:29:48.353Z,5.90
2023-04-02T02:34:53.866Z,5.90
2023-04-02T02:39:53.096Z,19.00
2023-04-02T02:44:50.005Z,5.50
2023-04-02T02:49:55.393Z,6.30
2023-04-02T02:54:54.986Z,7.40
2023-04-02T02:59:51.864Z,7.00
2023-04-02T03:04:49.346Z,7.00
2023-04-02T03:15:07.507Z,8.40
2023-04-02T03:20:14.745Z,8.30
2023-04-02T03:25:23.810Z,8.10
2023-04-02T03:30:38.727Z,6.60
2023-04-02T03:35:38.385Z,6.30
2023-04-02T03:41:06.816Z,7.10
2023-04-02T03:46:35.537Z,6.20
2023-04-02T03:56:40.166Z,6.00
2023-04-02T04:01:45.256Z,6.10
2023-04-02T04:06:47.598Z,5.60
2023-04-02T04:11:47.071Z,6.10
2023-04-02T04:16:47.584Z,7.10
2023-04-02T04:21:45.472Z,6.60
2023-04-02T04:27:36.117Z,6.70
2023-04-02T04:32:34.542Z,6.90
2023-04-02T04:37:42.694Z,6.10
2023-04-02T04:42:39.564Z,8.50
2023-04-02T04:47:42.799Z,8.80
2023-04-02T04:52:40.051Z,10.10
2023-04-02T04:57:37.586Z,7.60
2023-04-02T05:02:47.095Z,9.20
2023-04-02T05:07:50.774Z,9.60
2023-04-02T05:12:51.022Z,10.50
2023-04-02T05:18:22.075Z,11.30
2023-04-02T05:23:30.194Z,14.40
2023-04-02T05:28:36.915Z,14.20
2023-04-02T05:33:32.629Z,16.00
2023-04-02T05:43:27.928Z,14.40
2023-04-02T05:48:43.451Z,18.30
2023-04-02T05:53:41.921Z,16.00
2023-04-02T05:58:47.436Z,17.40
2023-04-02T06:03:49.110Z,15.00
2023-04-02T06:08:56.484Z,18.00
2023-04-02T06:13:51.113Z,15.10
2023-04-02T06:18:47.111Z,17.80
2023-04-02T06:23:46.876Z,15.90
2023-04-02T06:28:50.274Z,13.80
2023-04-02T06:33:44.797Z,14.20
2023-04-02T06:38:41.136Z,17.00
2023-04-02T06:43:42.431Z,16.30
2023-04-02T06:49:02.542Z,22.30
2023-04-02T06:53:56.301Z,15.50
2023-04-02T06:58:49.306Z,13.20
2023-04-02T07:03:43.254Z,13.60
2023-04-02T07:13:46.479Z,11.30
2023-04-02T07:18:39.649Z,8.60
2023-04-02T07:23:32.644Z,10.00
2023-04-02T07:28:25.960Z,8.60
2023-04-02T07:33:21.795Z,8.80
2023-04-02T07:38:14.754Z,8.80
2023-04-02T07:43:08.121Z,8.40
2023-04-02T07:48:08.704Z,7.70
2023-04-02T07:53:02.105Z,10.60
2023-04-02T07:57:57.798Z,8.20
2023-04-02T08:02:51.666Z,6.70
2023-04-02T08:07:45.697Z,6.20
2023-04-02T08:12:39.393Z,5.40
2023-04-02T08:17:34.121Z,5.50
2023-04-02T08:22:27.915Z,5.20
2023-04-02T08:27:20.848Z,5.10
2023-04-02T08:32:16.380Z,4.90
2023-04-02T08:37:12.964Z,4.50
2023-04-02T08:42:19.958Z,5.50
2023-04-02T08:47:15.689Z,5.50
2023-04-02T08:52:22.111Z,4.70
2023-04-02T08:57:28.802Z,5.30
2023-04-02T09:02:28.351Z,5.80
2023-04-02T09:07:21.937Z,5.60
2023-04-02T09:12:21.665Z,5.90
2023-04-02T09:17:22.929Z,6.80
2023-04-02T09:22:23.191Z,4.50
2023-04-02T09:27:20.539Z,4.90
2023-04-02T09:32:36.644Z,4.80
2023-04-02T09:37:29.594Z,4.30
2023-04-02T09:42:35.264Z,4.60
2023-04-02T09:47:28.979Z,5.30
2023-04-02T09:52:28.710Z,4.70
2023-04-02T09:57:28.164Z,7.70
2023-04-02T10:02:31.168Z,4.80
2023-04-02T10:07:41.459Z,4.10
2023-04-02T10:12:41.625Z,4.80
2023-04-02T10:17:38.723Z,5.10
2023-04-02T10:22:31.682Z,4.20
2023-04-02T10:27:31.379Z,4.10
2023-04-02T10:32:39.298Z,3.90
2023-04-02T10:37:35.008Z,5.00
2023-04-02T10:42:53.973Z,4.70
2023-04-02T10:48:19.551Z,4.50
2023-04-02T10:53:22.862Z,5.10
2023-04-02T10:58:26.664Z,4.40
2023-04-02T11:03:58.824Z,7.10
2023-04-02T11:09:02.375Z,9.00
2023-04-02T11:14:13.794Z,10.60
2023-04-02T11:19:15.967Z,8.70
2023-04-02T11:24:32.764Z,10.30
2023-04-02T11:29:29.802Z,16.20
2023-04-02T11:35:05.143Z,9.30
2023-04-02T11:40:12.232Z,13.20
2023-04-02T11:45:23.375Z,14.00
2023-04-02T11:50:30.413Z,10.40
2023-04-02T11:55:27.446Z,12.40
2023-04-02T12:00:46.451Z,10.40
2023-04-02T12:05:54.714Z,8.30
2023-04-02T12:10:55.762Z,8.10
2023-04-02T12:15:50.539Z,7.00
2023-04-02T12:20:48.744Z,9.60
2023-04-02T12:26:14.417Z,6.70
2023-04-02T12:31:10.351Z,7.10
2023-04-02T12:36:04.211Z,8.80
2023-04-02T12:41:03.674Z,7.60
2023-04-02T12:46:02.116Z,7.10
2023-04-02T12:50:56.305Z,6.80
2023-04-02T12:55:51.467Z,6.80
2023-04-02T13:00:44.332Z,6.00
2023-04-02T13:05:51.011Z,6.00
2023-04-02T13:10:44.700Z,5.40
2023-04-02T13:15:37.939Z,5.80
2023-04-02T13:20:33.968Z,8.70
2023-04-02T13:25:33.441Z,7.10
2023-04-02T13:30:29.396Z,6.70
2023-04-02T13:35:23.252Z,7.20
2023-04-02T13:40:19.307Z,4.80
2023-04-02T13:45:41.413Z,7.00
2023-04-02T13:50:37.448Z,5.40
2023-04-02T13:55:35.920Z,7.60
2023-04-02T14:00:28.852Z,6.90
2023-04-02T14:05:40.724Z,4.90
2023-04-02T14:11:06.012Z,3.90
2023-04-02T14:16:29.257Z,4.00
2023-04-02T14:22:13.161Z,4.00
2023-04-02T14:27:25.107Z,4.40
2023-04-02T14:32:29.792Z,5.20
2023-04-02T14:37:43.869Z,3.90
2023-04-02T14:42:52.030Z,4.60
2023-04-02T14:47:56.674Z,7.60
2023-04-02T14:52:58.060Z,17.10
2023-04-02T14:57:53.927Z,7.50
2023-04-02T15:02:53.058Z,4.70
2023-04-02T15:08:16.595Z,11.40
2023-04-02T15:13:20.331Z,6.10
2023-04-02T15:18:20.073Z,4.20
2023-04-02T15:23:20.670Z,4.20
2023-04-02T15:28:39.297Z,7.10
2023-04-02T15:33:35.882Z,6.00
2023-04-02T15:38:43.858Z,4.30
2023-04-02T15:43:39.660Z,5.50
2023-04-02T15:48:49.513Z,7.10
2023-04-02T15:54:00.884Z,5.70
2023-04-02T15:59:18.979Z,9.80
2023-04-02T16:04:20.639Z,7.30
2023-04-02T16:09:30.867Z,11.90
2023-04-02T16:14:34.167Z,7.20
2023-04-02T16:19:36.364Z,7.10
2023-04-02T16:24:29.297Z,6.40
2023-04-02T16:30:09.907Z,6.80
2023-04-02T16:35:43.118Z,8.00
2023-04-02T16:40:57.226Z,9.20
2023-04-02T16:46:07.202Z,7.60
2023-04-02T16:51:30.182Z,7.70
2023-04-02T16:56:36.738Z,6.80
2023-04-02T17:01:49.997Z,7.80
2023-04-02T17:06:45.650Z,8.40
2023-04-02T17:11:46.482Z,8.10
2023-04-02T17:16:45.102Z,13.60
2023-04-02T17:21:40.728Z,17.10
2023-04-02T17:26:38.046Z,12.70
2023-04-02T17:31:35.896Z,10.00
2023-04-02T17:36:30.016Z,18.40
2023-04-02T17:41:26.837Z,10.40
2023-04-02T17:46:22.686Z,8.90
2023-04-02T17:51:21.772Z,7.90
2023-04-02T17:56:43.389Z,7.00
2023-04-02T18:02:01.639Z,11.70
2023-04-02T18:07:25.129Z,12.00
2023-04-02T18:12:31.477Z,8.80
2023-04-02T18:17:48.201Z,7.90
2023-04-02T18:22:56.522Z,9.00
2023-04-02T18:28:10.032Z,8.30
2023-04-02T18:33:32.322Z,7.80
2023-04-02T18:38:25.108Z,6.30
2023-04-02T18:43:19.026Z,14.80
2023-04-02T18:48:35.479Z,6.90
2023-04-02T18:53:33.931Z,5.10
2023-04-02T18:58:35.257Z,7.80
2023-04-02T19:03:34.071Z,9.20
2023-04-02T19:08:51.848Z,11.60
2023-04-02T19:13:45.891Z,10.00
2023-04-02T19:18:51.116Z,13.90
2023-04-02T19:24:13.927Z,6.10
2023-04-02T19:29:42.475Z,6.90
2023-04-02T19:34:47.968Z,10.20
2023-04-02T19:40:09.518Z,6.00
2023-04-02T19:45:04.033Z,6.40
2023-04-02T19:49:57.545Z,15.10
2023-04-02T19:54:50.398Z,8.00
2023-04-02T19:59:43.282Z,10.60
2023-04-02T20:04:36.407Z,9.30
2023-04-02T20:09:29.924Z,15.80
2023-04-02T20:14:22.893Z,22.10
2023-04-02T20:19:15.802Z,20.20
2023-04-02T20:24:09.737Z,24.30
2023-04-02T20:29:02.680Z,21.50
2023-04-02T20:33:57.576Z,13.90
2023-04-02T20:38:51.608Z,40.50
2023-04-02T20:43:44.403Z,39.50
2023-04-02T20:48:37.885Z,11.90
2023-04-02T20:53:33.745Z,14.10
2023-04-02T20:58:26.612Z,5.70
2023-04-02T21:03:19.837Z,4.00
2023-04-02T21:08:13.775Z,4.70
2023-04-02T21:13:06.832Z,4.60
2023-04-02T21:17:59.992Z,8.80
2023-04-02T21:22:52.838Z,9.90
2023-04-02T21:27:46.042Z,11.60
2023-04-02T21:32:38.982Z,7.10
2023-04-02T21:37:32.154Z,9.40
2023-04-02T21:42:26.038Z,10.40
2023-04-02T21:47:18.907Z,22.20
2023-04-02T21:52:11.970Z,8.20
2023-04-02T21:57:05.562Z,4.80
2023-04-02T22:01:58.510Z,4.80
2023-04-02T22:06:53.275Z,3.50
2023-04-02T22:11:59.549Z,7.80
2023-04-02T22:17:25.209Z,3.10
2023-04-02T22:22:18.062Z,5.80
2023-04-02T22:27:10.914Z,4.40
2023-04-02T22:32:03.710Z,2.50
2023-04-02T22:36:57.332Z,6.50
2023-04-02T22:41:50.748Z,5.60
2023-04-02T22:46:47.816Z,10.00
2023-04-02T22:51:41.090Z,7.10
2023-04-02T22:56:35.505Z,4.30
2023-04-02T23:01:32.371Z,4.40
2023-04-02T23:06:26.565Z,6.90
2023-04-02T23:11:23.712Z,6.30
2023-04-02T23:16:17.824Z,8.60
2023-04-02T23:21:11.799Z,3.90
2023-04-02T23:26:07.366Z,3.70
2023-04-02T23:31:02.051Z,2.50
2023-04-02T23:35:55.048Z,2.90
2023-04-02T23:40:48.781Z,1.90
2023-04-02T23:45:41.572Z,3.20
2023-04-02T23:50:34.817Z,2.70
2023-04-02T23:55:28.205Z,3.30
